sensor_id;sensor_type;location;lat;lon;timestamp;P1;durP1;ratioP1;P2;durP2;ratioP2
47772;SDS011;33534;51.028;13.716;2022-10-16T00:01:21;16.92;;;12.93;;
47772;SDS011;33534;51.028;13.716;2022-10-16T00:03:47;14.95;;;11.60;;
47772;SDS011;33534;51.028;13.716;2022-10-16T00:06:14;15.73;;;12.82;;
47772;SDS011;33534;51.028;13.716;2022-10-16T00:08:41;15.63;;;11.88;;
47772;SDS011;33534;51.028;13.716;2022-10-16T00:11:08;15.45;;;11.40;;
47772;SDS011;33534;51.028;13.716;2022-10-16T00:13:35;17.33;;;11.82;;
47772;SDS011;33534;51.028;13.716;2022-10-16T00:16:02;15.32;;;11.40;;
47772;SDS011;33534;51.028;13.716;2022-10-16T00:18:28;14.25;;;10.63;;
47772;SDS011;33534;51.028;13.716;2022-10-16T00:20:55;15.55;;;10.73;;
47772;SDS011;33534;51.028;13.716;2022-10-16T00:23:21;15.52;;;11.07;;
47772;SDS011;33534;51.028;13.716;2022-10-16T00:25:54;14.35;;;10.95;;
47772;SDS011;33534;51.028;13.716;2022-10-16T00:28:21;14.95;;;12.25;;
47772;SDS011;33534;51.028;13.716;2022-10-16T00:30:47;14.98;;;11.50;;
47772;SDS011;33534;51.028;13.716;2022-10-16T00:33:13;16.55;;;12.82;;
47772;SDS011;33534;51.028;13.716;2022-10-16T00:35:39;16.50;;;12.52;;
47772;SDS011;33534;51.028;13.716;2022-10-16T00:38:05;17.98;;;13.88;;
47772;SDS011;33534;51.028;13.716;2022-10-16T00:40:31;19.30;;;14.45;;
47772;SDS011;33534;51.028;13.716;2022-10-16T00:42:57;19.55;;;14.20;;
47772;SDS011;33534;51.028;13.716;2022-10-16T00:45:23;20.20;;;14.63;;
47772;SDS011;33534;51.028;13.716;2022-10-16T00:47:49;22.85;;;13.98;;
47772;SDS011;33534;51.028;13.716;2022-10-16T00:50:33;17.08;;;13.48;;
47772;SDS011;33534;51.028;13.716;2022-10-16T00:53:00;14.65;;;12.18;;
47772;SDS011;33534;51.028;13.716;2022-10-16T00:55:27;17.98;;;13.70;;
47772;SDS011;33534;51.028;13.716;2022-10-16T00:57:55;19.75;;;14.73;;
47772;SDS011;33534;51.028;13.716;2022-10-16T01:00:22;18.58;;;14.07;;
47772;SDS011;33534;51.028;13.716;2022-10-16T01:02:52;16.30;;;13.60;;
47772;SDS011;33534;51.028;13.716;2022-10-16T01:05:19;18.38;;;13.73;;
47772;SDS011;33534;51.028;13.716;2022-10-16T01:10:38;21.58;;;15.70;;
47772;SDS011;33534;51.028;13.716;2022-10-16T01:13:11;20.02;;;14.27;;
47772;SDS011;33534;51.028;13.716;2022-10-16T01:15:44;20.23;;;14.40;;
47772;SDS011;33534;51.028;13.716;2022-10-16T01:21:03;18.27;;;14.63;;
47772;SDS011;33534;51.028;13.716;2022-10-16T01:26:10;20.67;;;16.42;;
47772;SDS011;33534;51.028;13.716;2022-10-16T01:31:10;19.33;;;16.48;;
47772;SDS011;33534;51.028;13.716;2022-10-16T01:33:40;20.42;;;16.15;;
47772;SDS011;33534;51.028;13.716;2022-10-16T01:36:10;16.52;;;14.50;;
47772;SDS011;33534;51.028;13.716;2022-10-16T01:38:38;16.83;;;13.98;;
47772;SDS011;33534;51.028;13.716;2022-10-16T01:41:09;19.20;;;13.95;;
47772;SDS011;33534;51.028;13.716;2022-10-16T01:43:47;14.80;;;13.27;;
47772;SDS011;33534;51.028;13.716;2022-10-16T01:46:15;14.13;;;12.63;;
47772;SDS011;33534;51.028;13.716;2022-10-16T01:48:42;14.05;;;12.07;;
47772;SDS011;33534;51.028;13.716;2022-10-16T01:51:09;13.70;;;11.93;;
47772;SDS011;33534;51.028;13.716;2022-10-16T01:53:36;12.85;;;11.32;;
47772;SDS011;33534;51.028;13.716;2022-10-16T01:56:03;13.00;;;10.68;;
47772;SDS011;33534;51.028;13.716;2022-10-16T01:58:30;12.43;;;11.13;;
47772;SDS011;33534;51.028;13.716;2022-10-16T02:00:59;13.55;;;11.15;;
47772;SDS011;33534;51.028;13.716;2022-10-16T02:03:26;12.80;;;10.70;;
47772;SDS011;33534;51.028;13.716;2022-10-16T02:05:54;12.48;;;10.52;;
47772;SDS011;33534;51.028;13.716;2022-10-16T02:08:21;16.52;;;11.45;;
47772;SDS011;33534;51.028;13.716;2022-10-16T02:10:48;13.63;;;10.15;;
47772;SDS011;33534;51.028;13.716;2022-10-16T02:13:22;14.93;;;10.43;;
47772;SDS011;33534;51.028;13.716;2022-10-16T02:15:49;13.77;;;10.32;;
47772;SDS011;33534;51.028;13.716;2022-10-16T02:18:15;14.77;;;11.07;;
47772;SDS011;33534;51.028;13.716;2022-10-16T02:20:52;12.98;;;9.73;;
47772;SDS011;33534;51.028;13.716;2022-10-16T02:23:21;12.10;;;10.20;;
47772;SDS011;33534;51.028;13.716;2022-10-16T02:25:49;12.38;;;11.07;;
47772;SDS011;33534;51.028;13.716;2022-10-16T02:28:18;13.68;;;10.25;;
47772;SDS011;33534;51.028;13.716;2022-10-16T02:30:49;13.93;;;8.73;;
47772;SDS011;33534;51.028;13.716;2022-10-16T02:33:16;11.73;;;9.10;;
47772;SDS011;33534;51.028;13.716;2022-10-16T02:35:43;10.27;;;8.40;;
47772;SDS011;33534;51.028;13.716;2022-10-16T02:38:10;9.70;;;8.68;;
47772;SDS011;33534;51.028;13.716;2022-10-16T02:40:36;7.60;;;6.85;;
47772;SDS011;33534;51.028;13.716;2022-10-16T02:43:03;8.85;;;7.28;;
47772;SDS011;33534;51.028;13.716;2022-10-16T02:45:29;9.05;;;6.45;;
47772;SDS011;33534;51.028;13.716;2022-10-16T02:47:55;7.55;;;5.40;;
47772;SDS011;33534;51.028;13.716;2022-10-16T02:50:21;9.18;;;5.53;;
47772;SDS011;33534;51.028;13.716;2022-10-16T02:52:47;7.47;;;5.55;;
47772;SDS011;33534;51.028;13.716;2022-10-16T02:55:13;5.57;;;5.00;;
47772;SDS011;33534;51.028;13.716;2022-10-16T02:57:40;5.55;;;5.05;;
47772;SDS011;33534;51.028;13.716;2022-10-16T03:00:06;6.43;;;5.70;;
47772;SDS011;33534;51.028;13.716;2022-10-16T03:02:33;6.78;;;5.30;;
47772;SDS011;33534;51.028;13.716;2022-10-16T03:04:59;8.65;;;6.70;;
47772;SDS011;33534;51.028;13.716;2022-10-16T03:07:25;13.98;;;6.72;;
47772;SDS011;33534;51.028;13.716;2022-10-16T03:09:51;8.02;;;6.15;;
47772;SDS011;33534;51.028;13.716;2022-10-16T03:12:17;10.80;;;6.28;;
47772;SDS011;33534;51.028;13.716;2022-10-16T03:14:43;9.93;;;7.00;;
47772;SDS011;33534;51.028;13.716;2022-10-16T03:17:09;8.15;;;7.30;;
47772;SDS011;33534;51.028;13.716;2022-10-16T03:19:35;7.68;;;6.88;;
47772;SDS011;33534;51.028;13.716;2022-10-16T03:22:01;9.00;;;7.28;;
47772;SDS011;33534;51.028;13.716;2022-10-16T03:24:27;10.20;;;8.35;;
47772;SDS011;33534;51.028;13.716;2022-10-16T03:26:53;9.43;;;7.10;;
47772;SDS011;33534;51.028;13.716;2022-10-16T03:29:19;7.22;;;6.40;;
47772;SDS011;33534;51.028;13.716;2022-10-16T03:31:45;8.90;;;6.88;;
47772;SDS011;33534;51.028;13.716;2022-10-16T03:34:13;7.53;;;6.32;;
47772;SDS011;33534;51.028;13.716;2022-10-16T03:36:39;7.55;;;6.18;;
47772;SDS011;33534;51.028;13.716;2022-10-16T03:39:05;6.93;;;6.05;;
47772;SDS011;33534;51.028;13.716;2022-10-16T03:41:31;9.13;;;6.93;;
47772;SDS011;33534;51.028;13.716;2022-10-16T03:43:57;8.27;;;7.38;;
47772;SDS011;33534;51.028;13.716;2022-10-16T03:46:23;8.73;;;7.35;;
47772;SDS011;33534;51.028;13.716;2022-10-16T03:48:49;10.60;;;7.90;;
47772;SDS011;33534;51.028;13.716;2022-10-16T03:51:15;9.82;;;8.77;;
47772;SDS011;33534;51.028;13.716;2022-10-16T03:53:41;9.98;;;8.80;;
47772;SDS011;33534;51.028;13.716;2022-10-16T03:56:07;12.93;;;10.48;;
47772;SDS011;33534;51.028;13.716;2022-10-16T03:58:33;13.55;;;10.77;;
47772;SDS011;33534;51.028;13.716;2022-10-16T04:00:59;13.25;;;10.48;;
47772;SDS011;33534;51.028;13.716;2022-10-16T04:03:25;11.57;;;10.38;;
47772;SDS011;33534;51.028;13.716;2022-10-16T04:05:51;12.40;;;10.98;;
47772;SDS011;33534;51.028;13.716;2022-10-16T04:08:17;11.98;;;10.70;;
47772;SDS011;33534;51.028;13.716;2022-10-16T04:10:43;12.73;;;11.27;;
47772;SDS011;33534;51.028;13.716;2022-10-16T04:13:09;12.93;;;11.63;;
47772;SDS011;33534;51.028;13.716;2022-10-16T04:15:35;13.48;;;11.60;;
47772;SDS011;33534;51.028;13.716;2022-10-16T04:18:01;13.05;;;11.05;;
47772;SDS011;33534;51.028;13.716;2022-10-16T04:20:27;13.95;;;12.18;;
47772;SDS011;33534;51.028;13.716;2022-10-16T04:22:53;16.20;;;12.50;;
47772;SDS011;33534;51.028;13.716;2022-10-16T04:25:19;14.52;;;12.50;;
47772;SDS011;33534;51.028;13.716;2022-10-16T04:27:45;15.98;;;12.77;;
47772;SDS011;33534;51.028;13.716;2022-10-16T04:30:11;13.38;;;11.32;;
47772;SDS011;33534;51.028;13.716;2022-10-16T04:32:37;18.45;;;12.05;;
47772;SDS011;33534;51.028;13.716;2022-10-16T04:35:03;13.98;;;11.57;;
47772;SDS011;33534;51.028;13.716;2022-10-16T04:37:29;16.45;;;12.75;;
47772;SDS011;33534;51.028;13.716;2022-10-16T04:39:55;14.98;;;12.02;;
47772;SDS011;33534;51.028;13.716;2022-10-16T04:42:21;12.80;;;11.07;;
47772;SDS011;33534;51.028;13.716;2022-10-16T04:44:47;13.27;;;10.65;;
47772;SDS011;33534;51.028;13.716;2022-10-16T04:47:13;13.52;;;11.25;;
47772;SDS011;33534;51.028;13.716;2022-10-16T04:49:39;13.23;;;11.68;;
47772;SDS011;33534;51.028;13.716;2022-10-16T04:52:05;13.43;;;11.25;;
47772;SDS011;33534;51.028;13.716;2022-10-16T04:54:31;13.82;;;10.70;;
47772;SDS011;33534;51.028;13.716;2022-10-16T04:56:57;13.15;;;11.52;;
47772;SDS011;33534;51.028;13.716;2022-10-16T04:59:23;12.15;;;10.85;;
47772;SDS011;33534;51.028;13.716;2022-10-16T05:01:49;13.48;;;10.52;;
47772;SDS011;33534;51.028;13.716;2022-10-16T05:04:15;15.13;;;11.57;;
47772;SDS011;33534;51.028;13.716;2022-10-16T05:06:41;15.25;;;12.45;;
47772;SDS011;33534;51.028;13.716;2022-10-16T05:09:08;14.45;;;11.57;;
47772;SDS011;33534;51.028;13.716;2022-10-16T05:11:34;12.75;;;11.45;;
47772;SDS011;33534;51.028;13.716;2022-10-16T05:14:00;13.32;;;11.68;;
47772;SDS011;33534;51.028;13.716;2022-10-16T05:16:26;14.20;;;11.80;;
47772;SDS011;33534;51.028;13.716;2022-10-16T05:18:52;12.23;;;10.93;;
47772;SDS011;33534;51.028;13.716;2022-10-16T05:21:18;13.13;;;11.77;;
47772;SDS011;33534;51.028;13.716;2022-10-16T05:23:44;12.63;;;10.98;;
47772;SDS011;33534;51.028;13.716;2022-10-16T05:26:10;11.75;;;10.25;;
47772;SDS011;33534;51.028;13.716;2022-10-16T05:28:36;10.65;;;9.65;;
47772;SDS011;33534;51.028;13.716;2022-10-16T05:31:05;9.55;;;8.52;;
47772;SDS011;33534;51.028;13.716;2022-10-16T05:33:31;10.50;;;8.95;;
47772;SDS011;33534;51.028;13.716;2022-10-16T05:36:00;9.88;;;8.88;;
47772;SDS011;33534;51.028;13.716;2022-10-16T05:38:27;13.65;;;8.57;;
47772;SDS011;33534;51.028;13.716;2022-10-16T05:40:53;11.23;;;9.40;;
47772;SDS011;33534;51.028;13.716;2022-10-16T05:43:19;11.90;;;9.25;;
47772;SDS011;33534;51.028;13.716;2022-10-16T05:45:53;9.90;;;8.80;;
47772;SDS011;33534;51.028;13.716;2022-10-16T05:48:19;12.27;;;9.32;;
47772;SDS011;33534;51.028;13.716;2022-10-16T05:50:45;10.23;;;8.55;;
47772;SDS011;33534;51.028;13.716;2022-10-16T05:53:11;9.65;;;8.52;;
47772;SDS011;33534;51.028;13.716;2022-10-16T05:55:36;8.75;;;7.88;;
47772;SDS011;33534;51.028;13.716;2022-10-16T05:58:02;8.70;;;7.80;;
47772;SDS011;33534;51.028;13.716;2022-10-16T06:00:28;8.60;;;7.70;;
47772;SDS011;33534;51.028;13.716;2022-10-16T06:02:54;10.23;;;7.53;;
47772;SDS011;33534;51.028;13.716;2022-10-16T06:05:20;8.75;;;6.70;;
47772;SDS011;33534;51.028;13.716;2022-10-16T06:07:46;9.27;;;6.53;;
47772;SDS011;33534;51.028;13.716;2022-10-16T06:10:12;6.63;;;5.90;;
47772;SDS011;33534;51.028;13.716;2022-10-16T06:12:39;7.00;;;5.65;;
47772;SDS011;33534;51.028;13.716;2022-10-16T06:15:05;7.90;;;5.97;;
47772;SDS011;33534;51.028;13.716;2022-10-16T06:17:31;6.95;;;6.00;;
47772;SDS011;33534;51.028;13.716;2022-10-16T06:19:57;7.22;;;5.72;;
47772;SDS011;33534;51.028;13.716;2022-10-16T06:22:23;5.32;;;4.82;;
47772;SDS011;33534;51.028;13.716;2022-10-16T06:24:49;5.70;;;4.50;;
47772;SDS011;33534;51.028;13.716;2022-10-16T06:27:15;5.55;;;4.88;;
47772;SDS011;33534;51.028;13.716;2022-10-16T06:29:41;4.72;;;4.32;;
47772;SDS011;33534;51.028;13.716;2022-10-16T06:32:08;5.93;;;4.57;;
47772;SDS011;33534;51.028;13.716;2022-10-16T06:34:34;4.75;;;4.25;;
47772;SDS011;33534;51.028;13.716;2022-10-16T06:37:00;5.22;;;4.22;;
47772;SDS011;33534;51.028;13.716;2022-10-16T06:39:26;7.00;;;4.95;;
47772;SDS011;33534;51.028;13.716;2022-10-16T06:41:52;6.30;;;5.32;;
47772;SDS011;33534;51.028;13.716;2022-10-16T06:44:18;9.57;;;6.18;;
47772;SDS011;33534;51.028;13.716;2022-10-16T06:46:44;7.05;;;5.78;;
47772;SDS011;33534;51.028;13.716;2022-10-16T06:49:10;7.22;;;5.65;;
47772;SDS011;33534;51.028;13.716;2022-10-16T06:51:36;6.45;;;5.85;;
47772;SDS011;33534;51.028;13.716;2022-10-16T06:54:05;6.07;;;5.47;;
47772;SDS011;33534;51.028;13.716;2022-10-16T06:56:32;7.15;;;6.45;;
47772;SDS011;33534;51.028;13.716;2022-10-16T06:58:58;6.25;;;5.65;;
47772;SDS011;33534;51.028;13.716;2022-10-16T07:01:25;8.73;;;6.35;;
47772;SDS011;33534;51.028;13.716;2022-10-16T07:03:51;6.43;;;5.68;;
47772;SDS011;33534;51.028;13.716;2022-10-16T07:06:18;6.70;;;6.00;;
47772;SDS011;33534;51.028;13.716;2022-10-16T07:08:45;8.60;;;5.90;;
47772;SDS011;33534;51.028;13.716;2022-10-16T07:11:18;6.13;;;5.53;;
47772;SDS011;33534;51.028;13.716;2022-10-16T07:13:45;6.00;;;5.40;;
47772;SDS011;33534;51.028;13.716;2022-10-16T07:16:16;6.32;;;5.72;;
47772;SDS011;33534;51.028;13.716;2022-10-16T07:18:42;6.22;;;5.28;;
47772;SDS011;33534;51.028;13.716;2022-10-16T07:21:11;5.30;;;4.80;;
47772;SDS011;33534;51.028;13.716;2022-10-16T07:23:38;5.55;;;4.95;;
47772;SDS011;33534;51.028;13.716;2022-10-16T07:26:04;7.78;;;6.03;;
47772;SDS011;33534;51.028;13.716;2022-10-16T07:28:31;6.63;;;6.00;;
47772;SDS011;33534;51.028;13.716;2022-10-16T07:31:07;6.78;;;6.07;;
47772;SDS011;33534;51.028;13.716;2022-10-16T07:33:35;10.40;;;6.53;;
47772;SDS011;33534;51.028;13.716;2022-10-16T07:36:01;7.35;;;6.65;;
47772;SDS011;33534;51.028;13.716;2022-10-16T07:38:27;7.03;;;6.30;;
47772;SDS011;33534;51.028;13.716;2022-10-16T07:40:57;7.10;;;6.40;;
47772;SDS011;33534;51.028;13.716;2022-10-16T07:43:23;7.22;;;6.32;;
47772;SDS011;33534;51.028;13.716;2022-10-16T07:45:49;7.82;;;6.30;;
47772;SDS011;33534;51.028;13.716;2022-10-16T07:48:16;7.78;;;6.65;;
47772;SDS011;33534;51.028;13.716;2022-10-16T07:50:42;7.03;;;6.38;;
47772;SDS011;33534;51.028;13.716;2022-10-16T07:53:08;7.85;;;7.05;;
47772;SDS011;33534;51.028;13.716;2022-10-16T07:55:35;8.43;;;7.57;;
47772;SDS011;33534;51.028;13.716;2022-10-16T07:58:01;7.22;;;6.63;;
47772;SDS011;33534;51.028;13.716;2022-10-16T08:00:27;7.82;;;6.30;;
47772;SDS011;33534;51.028;13.716;2022-10-16T08:02:53;8.68;;;7.15;;
47772;SDS011;33534;51.028;13.716;2022-10-16T08:05:19;7.55;;;6.85;;
47772;SDS011;33534;51.028;13.716;2022-10-16T08:07:48;7.75;;;5.60;;
47772;SDS011;33534;51.028;13.716;2022-10-16T08:10:28;10.15;;;6.75;;
47772;SDS011;33534;51.028;13.716;2022-10-16T08:13:01;6.43;;;5.78;;
47772;SDS011;33534;51.028;13.716;2022-10-16T08:15:47;8.75;;;7.82;;
47772;SDS011;33534;51.028;13.716;2022-10-16T08:18:25;9.45;;;8.15;;
47772;SDS011;33534;51.028;13.716;2022-10-16T08:21:23;13.70;;;10.90;;
47772;SDS011;33534;51.028;13.716;2022-10-16T08:23:58;10.23;;;9.20;;
47772;SDS011;33534;51.028;13.716;2022-10-16T08:27:02;10.60;;;9.55;;
47772;SDS011;33534;51.028;13.716;2022-10-16T08:29:49;38.78;;;23.33;;
47772;SDS011;33534;51.028;13.716;2022-10-16T08:38:05;29.65;;;19.30;;
47772;SDS011;33534;51.028;13.716;2022-10-16T08:40:32;32.58;;;19.25;;
47772;SDS011;33534;51.028;13.716;2022-10-16T08:50:49;35.20;;;20.08;;
47772;SDS011;33534;51.028;13.716;2022-10-16T08:53:19;39.05;;;22.73;;
47772;SDS011;33534;51.028;13.716;2022-10-16T08:55:51;22.52;;;13.88;;
47772;SDS011;33534;51.028;13.716;2022-10-16T08:58:18;19.25;;;13.18;;
47772;SDS011;33534;51.028;13.716;2022-10-16T09:00:46;14.38;;;9.63;;
47772;SDS011;33534;51.028;13.716;2022-10-16T09:06:00;11.38;;;9.10;;
47772;SDS011;33534;51.028;13.716;2022-10-16T09:08:35;8.75;;;7.90;;
47772;SDS011;33534;51.028;13.716;2022-10-16T09:11:18;11.50;;;7.95;;
47772;SDS011;33534;51.028;13.716;2022-10-16T09:13:51;15.95;;;10.63;;
47772;SDS011;33534;51.028;13.716;2022-10-16T09:21:31;12.05;;;9.57;;
47772;SDS011;33534;51.028;13.716;2022-10-16T09:23:59;10.00;;;8.93;;
47772;SDS011;33534;51.028;13.716;2022-10-16T09:26:28;9.43;;;8.43;;
47772;SDS011;33534;51.028;13.716;2022-10-16T09:28:54;4.55;;;4.15;;
47772;SDS011;33534;51.028;13.716;2022-10-16T09:31:21;4.18;;;3.78;;
47772;SDS011;33534;51.028;13.716;2022-10-16T09:33:52;3.70;;;3.40;;
47772;SDS011;33534;51.028;13.716;2022-10-16T09:36:26;3.08;;;2.42;;
47772;SDS011;33534;51.028;13.716;2022-10-16T09:39:04;1.67;;;1.58;;
47772;SDS011;33534;51.028;13.716;2022-10-16T09:41:30;3.53;;;1.10;;
47772;SDS011;33534;51.028;13.716;2022-10-16T09:43:57;1.85;;;0.98;;
47772;SDS011;33534;51.028;13.716;2022-10-16T09:48:57;1.30;;;1.10;;
47772;SDS011;33534;51.028;13.716;2022-10-16T09:51:25;3.65;;;1.58;;
47772;SDS011;33534;51.028;13.716;2022-10-16T09:53:58;0.55;;;0.50;;
47772;SDS011;33534;51.028;13.716;2022-10-16T09:58:52;2.42;;;1.63;;
47772;SDS011;33534;51.028;13.716;2022-10-16T10:01:18;4.72;;;0.82;;
47772;SDS011;33534;51.028;13.716;2022-10-16T10:03:45;3.00;;;1.85;;
47772;SDS011;33534;51.028;13.716;2022-10-16T10:06:25;2.65;;;0.63;;
47772;SDS011;33534;51.028;13.716;2022-10-16T10:08:59;8.82;;;4.38;;
47772;SDS011;33534;51.028;13.716;2022-10-16T10:14:05;2.00;;;1.00;;
47772;SDS011;33534;51.028;13.716;2022-10-16T10:16:31;8.60;;;4.57;;
47772;SDS011;33534;51.028;13.716;2022-10-16T10:18:58;4.65;;;2.08;;
47772;SDS011;33534;51.028;13.716;2022-10-16T10:21:24;3.85;;;1.58;;
47772;SDS011;33534;51.028;13.716;2022-10-16T10:23:56;1.08;;;0.90;;
47772;SDS011;33534;51.028;13.716;2022-10-16T10:26:26;2.03;;;1.42;;
47772;SDS011;33534;51.028;13.716;2022-10-16T10:38:59;2.78;;;0.77;;
47772;SDS011;33534;51.028;13.716;2022-10-16T10:46:32;2.60;;;0.98;;
47772;SDS011;33534;51.028;13.716;2022-10-16T10:56:58;3.00;;;1.08;;
47772;SDS011;33534;51.028;13.716;2022-10-16T11:07:16;3.30;;;0.47;;
47772;SDS011;33534;51.028;13.716;2022-10-16T11:09:51;15.00;;;4.20;;
47772;SDS011;33534;51.028;13.716;2022-10-16T11:12:24;0.77;;;0.57;;
47772;SDS011;33534;51.028;13.716;2022-10-16T11:17:38;5.80;;;1.73;;
47772;SDS011;33534;51.028;13.716;2022-10-16T11:20:11;2.13;;;0.93;;
47772;SDS011;33534;51.028;13.716;2022-10-16T11:22:40;2.80;;;1.23;;
47772;SDS011;33534;51.028;13.716;2022-10-16T11:30:22;5.75;;;2.83;;
47772;SDS011;33534;51.028;13.716;2022-10-16T11:35:22;3.45;;;1.02;;
47772;SDS011;33534;51.028;13.716;2022-10-16T11:37:49;2.67;;;1.15;;
47772;SDS011;33534;51.028;13.716;2022-10-16T11:40:19;2.75;;;0.47;;
47772;SDS011;33534;51.028;13.716;2022-10-16T11:42:48;1.38;;;0.20;;
47772;SDS011;33534;51.028;13.716;2022-10-16T11:45:24;0.70;;;0.52;;
47772;SDS011;33534;51.028;13.716;2022-10-16T11:53:39;4.55;;;0.90;;
47772;SDS011;33534;51.028;13.716;2022-10-16T11:56:11;1.70;;;0.75;;
47772;SDS011;33534;51.028;13.716;2022-10-16T12:06:48;0.25;;;0.20;;
47772;SDS011;33534;51.028;13.716;2022-10-16T12:11:47;1.15;;;0.88;;
47772;SDS011;33534;51.028;13.716;2022-10-16T12:14:20;1.75;;;0.50;;
47772;SDS011;33534;51.028;13.716;2022-10-16T12:19:56;0.60;;;0.43;;
47772;SDS011;33534;51.028;13.716;2022-10-16T12:22:25;2.20;;;0.50;;
47772;SDS011;33534;51.028;13.716;2022-10-16T12:24:52;0.52;;;0.35;;
47772;SDS011;33534;51.028;13.716;2022-10-16T12:29:54;0.30;;;0.30;;
47772;SDS011;33534;51.028;13.716;2022-10-16T12:34:49;0.20;;;0.20;;
47772;SDS011;33534;51.028;13.716;2022-10-16T12:37:19;1.38;;;0.32;;
47772;SDS011;33534;51.028;13.716;2022-10-16T12:39:46;2.60;;;0.40;;
47772;SDS011;33534;51.028;13.716;2022-10-16T12:44:45;1.70;;;1.05;;
47772;SDS011;33534;51.028;13.716;2022-10-16T12:47:35;0.65;;;0.40;;
47772;SDS011;33534;51.028;13.716;2022-10-16T12:50:02;1.23;;;0.60;;
47772;SDS011;33534;51.028;13.716;2022-10-16T12:52:34;1.75;;;0.50;;
47772;SDS011;33534;51.028;13.716;2022-10-16T12:55:01;0.43;;;0.43;;
47772;SDS011;33534;51.028;13.716;2022-10-16T13:03:21;1.77;;;0.68;;
47772;SDS011;33534;51.028;13.716;2022-10-16T13:10:40;1.45;;;0.40;;
47772;SDS011;33534;51.028;13.716;2022-10-16T13:15:39;0.60;;;0.60;;
47772;SDS011;33534;51.028;13.716;2022-10-16T13:18:13;0.80;;;0.55;;
47772;SDS011;33534;51.028;13.716;2022-10-16T13:23:09;0.65;;;0.43;;
47772;SDS011;33534;51.028;13.716;2022-10-16T13:28:09;0.85;;;0.45;;
47772;SDS011;33534;51.028;13.716;2022-10-16T13:30:43;2.63;;;0.60;;
47772;SDS011;33534;51.028;13.716;2022-10-16T13:35:35;1.15;;;0.80;;
47772;SDS011;33534;51.028;13.716;2022-10-16T13:38:12;1.42;;;0.52;;
47772;SDS011;33534;51.028;13.716;2022-10-16T13:40:49;2.22;;;0.70;;
47772;SDS011;33534;51.028;13.716;2022-10-16T13:43:17;0.47;;;0.47;;
47772;SDS011;33534;51.028;13.716;2022-10-16T13:45:52;1.30;;;0.68;;
47772;SDS011;33534;51.028;13.716;2022-10-16T13:48:18;0.98;;;0.65;;
47772;SDS011;33534;51.028;13.716;2022-10-16T13:50:44;1.92;;;0.50;;
47772;SDS011;33534;51.028;13.716;2022-10-16T13:53:14;1.63;;;0.50;;
47772;SDS011;33534;51.028;13.716;2022-10-16T13:55:40;2.00;;;1.00;;
47772;SDS011;33534;51.028;13.716;2022-10-16T13:58:13;1.58;;;1.00;;
47772;SDS011;33534;51.028;13.716;2022-10-16T14:00:39;2.25;;;0.80;;
47772;SDS011;33534;51.028;13.716;2022-10-16T14:03:13;0.73;;;0.73;;
47772;SDS011;33534;51.028;13.716;2022-10-16T14:05:50;3.38;;;1.02;;
47772;SDS011;33534;51.028;13.716;2022-10-16T14:08:17;2.25;;;0.57;;
47772;SDS011;33534;51.028;13.716;2022-10-16T14:10:46;4.18;;;1.10;;
47772;SDS011;33534;51.028;13.716;2022-10-16T14:13:14;2.25;;;0.70;;
47772;SDS011;33534;51.028;13.716;2022-10-16T14:15:45;3.42;;;0.85;;
47772;SDS011;33534;51.028;13.716;2022-10-16T14:18:19;1.70;;;1.05;;
47772;SDS011;33534;51.028;13.716;2022-10-16T14:20:46;4.22;;;0.90;;
47772;SDS011;33534;51.028;13.716;2022-10-16T14:23:31;1.95;;;1.00;;
47772;SDS011;33534;51.028;13.716;2022-10-16T14:28:38;2.33;;;1.08;;
47772;SDS011;33534;51.028;13.716;2022-10-16T14:31:41;3.90;;;1.10;;
47772;SDS011;33534;51.028;13.716;2022-10-16T14:34:02;1.98;;;0.77;;
47772;SDS011;33534;51.028;13.716;2022-10-16T14:36:28;2.63;;;0.88;;
47772;SDS011;33534;51.028;13.716;2022-10-16T14:39:02;1.95;;;0.85;;
47772;SDS011;33534;51.028;13.716;2022-10-16T14:41:30;1.40;;;0.88;;
47772;SDS011;33534;51.028;13.716;2022-10-16T14:43:57;3.95;;;1.02;;
47772;SDS011;33534;51.028;13.716;2022-10-16T14:46:36;3.25;;;1.30;;
47772;SDS011;33534;51.028;13.716;2022-10-16T14:51:34;5.43;;;1.20;;
47772;SDS011;33534;51.028;13.716;2022-10-16T14:54:00;1.80;;;1.10;;
47772;SDS011;33534;51.028;13.716;2022-10-16T14:56:29;2.00;;;1.38;;
47772;SDS011;33534;51.028;13.716;2022-10-16T14:58:55;1.60;;;0.88;;
47772;SDS011;33534;51.028;13.716;2022-10-16T15:01:21;1.67;;;0.90;;
47772;SDS011;33534;51.028;13.716;2022-10-16T15:03:47;1.20;;;0.82;;
47772;SDS011;33534;51.028;13.716;2022-10-16T15:06:14;3.15;;;1.13;;
47772;SDS011;33534;51.028;13.716;2022-10-16T15:08:41;1.65;;;0.90;;
47772;SDS011;33534;51.028;13.716;2022-10-16T15:11:11;5.93;;;2.30;;
47772;SDS011;33534;51.028;13.716;2022-10-16T15:13:38;2.50;;;1.35;;
47772;SDS011;33534;51.028;13.716;2022-10-16T15:16:04;4.75;;;2.10;;
47772;SDS011;33534;51.028;13.716;2022-10-16T15:18:30;2.58;;;1.80;;
47772;SDS011;33534;51.028;13.716;2022-10-16T15:20:56;4.78;;;1.70;;
47772;SDS011;33534;51.028;13.716;2022-10-16T15:23:22;3.72;;;2.00;;
47772;SDS011;33534;51.028;13.716;2022-10-16T15:25:49;3.15;;;2.35;;
47772;SDS011;33534;51.028;13.716;2022-10-16T15:28:16;3.70;;;2.00;;
47772;SDS011;33534;51.028;13.716;2022-10-16T15:30:43;9.98;;;2.72;;
47772;SDS011;33534;51.028;13.716;2022-10-16T15:33:17;4.80;;;2.30;;
47772;SDS011;33534;51.028;13.716;2022-10-16T15:35:47;4.97;;;1.80;;
47772;SDS011;33534;51.028;13.716;2022-10-16T15:38:13;2.17;;;1.75;;
47772;SDS011;33534;51.028;13.716;2022-10-16T15:40:39;4.40;;;2.13;;
47772;SDS011;33534;51.028;13.716;2022-10-16T15:43:06;2.40;;;1.83;;
47772;SDS011;33534;51.028;13.716;2022-10-16T15:45:32;2.58;;;1.85;;
47772;SDS011;33534;51.028;13.716;2022-10-16T15:48:00;2.53;;;1.90;;
47772;SDS011;33534;51.028;13.716;2022-10-16T15:50:26;2.65;;;2.42;;
47772;SDS011;33534;51.028;13.716;2022-10-16T15:52:52;3.50;;;1.60;;
47772;SDS011;33534;51.028;13.716;2022-10-16T15:55:18;1.92;;;1.33;;
47772;SDS011;33534;51.028;13.716;2022-10-16T15:57:47;1.83;;;1.23;;
47772;SDS011;33534;51.028;13.716;2022-10-16T16:00:16;3.88;;;1.90;;
47772;SDS011;33534;51.028;13.716;2022-10-16T16:02:42;3.00;;;1.80;;
47772;SDS011;33534;51.028;13.716;2022-10-16T16:05:09;4.50;;;1.88;;
47772;SDS011;33534;51.028;13.716;2022-10-16T16:07:36;4.10;;;1.60;;
47772;SDS011;33534;51.028;13.716;2022-10-16T16:10:03;3.60;;;2.10;;
47772;SDS011;33534;51.028;13.716;2022-10-16T16:12:30;3.03;;;2.10;;
47772;SDS011;33534;51.028;13.716;2022-10-16T16:14:56;3.05;;;2.20;;
47772;SDS011;33534;51.028;13.716;2022-10-16T16:17:22;3.80;;;2.55;;
47772;SDS011;33534;51.028;13.716;2022-10-16T16:19:49;4.63;;;2.55;;
47772;SDS011;33534;51.028;13.716;2022-10-16T16:22:18;4.40;;;2.13;;
47772;SDS011;33534;51.028;13.716;2022-10-16T16:24:44;1.83;;;1.63;;
47772;SDS011;33534;51.028;13.716;2022-10-16T16:27:10;3.53;;;2.10;;
47772;SDS011;33534;51.028;13.716;2022-10-16T16:29:37;3.08;;;2.05;;
47772;SDS011;33534;51.028;13.716;2022-10-16T16:32:03;4.30;;;2.80;;
47772;SDS011;33534;51.028;13.716;2022-10-16T16:34:29;4.93;;;2.20;;
47772;SDS011;33534;51.028;13.716;2022-10-16T16:36:55;7.75;;;2.80;;
47772;SDS011;33534;51.028;13.716;2022-10-16T16:39:22;5.82;;;3.22;;
47772;SDS011;33534;51.028;13.716;2022-10-16T16:41:48;4.68;;;2.88;;
47772;SDS011;33534;51.028;13.716;2022-10-16T16:44:14;7.03;;;3.70;;
47772;SDS011;33534;51.028;13.716;2022-10-16T16:46:40;5.60;;;3.35;;